Ingleside on the Bay, Texas
Current Conditions -  °F | °C
As of 7:15 PM on Thursday 27 Nov 2014 (Local Time) from KTFP Reporting Station
Clear Clear  
Wind Chill: 59°   Ceiling: Unl
Heat Index: 59°   Visibility: 10mi
Dew Point: 53°   Wind: 6mph
Humidity: 81%   Direction: 60°ENE
Pressure: 30.4"   Gusts: NA
Location:  27.8594°N, 97.2055°W
Report Text: KTFP 280115Z AUTO 06005KT 10SM CLR 15/12 A3040 RMK AO2 T01500117
Loading
Personal Weather Stations






























Interactive Weather Map New forecast layout! Learn more

10-Day Weather Forecast

Advertisements
Track Severe Weather on mobile